Time;durP1;ratioP1;P1;durP2;ratioP2;P2;SDS_P1;SDS_P2;PMS_P1;PMS_P2;Temp;Humidity;BMP_temperature;BMP_pressure;BME280_temperature;BME280_humidity;BME280_pressure;Samples;Min_cycle;Max_cycle;Signal;HPM_P1;HPM_P2
2022/04/02 00:00:12;;;;;;;5.63;2.35;;;;;;;0.54;100.00;100977.53;7392347;19;20194;-48
2022/04/02 00:02:44;;;;;;;6.03;2.47;;;;;;;0.59;100.00;100973.75;7396680;19;20126;-49
2022/04/02 00:05:14;;;;;;;8.02;2.90;;;;;;;0.56;100.00;100964.97;7396862;19;20486;-48
2022/04/02 00:07:44;;;;;;;8.05;3.10;;;;;;;0.51;100.00;100965.47;7393576;19;20127;-49
2022/04/02 00:10:15;;;;;;;8.35;2.60;;;;;;;0.43;100.00;100965.56;7395270;19;20192;-48
2022/04/02 00:12:45;;;;;;;5.00;2.53;;;;;;;0.42;100.00;100961.25;7399355;19;20131;-49
2022/04/02 00:15:14;;;;;;;4.75;2.20;;;;;;;0.38;100.00;100965.16;7396033;19;20520;-49
2022/04/02 00:17:46;;;;;;;5.30;2.23;;;;;;;0.39;100.00;100955.16;7395885;19;20128;-51
2022/04/02 00:20:17;;;;;;;9.30;2.58;;;;;;;0.42;100.00;100958.72;7393462;19;20952;-49
2022/04/02 00:25:28;;;;;;;6.10;2.55;;;;;;;0.34;100.00;100948.78;7395717;19;20487;-50
2022/04/02 00:27:58;;;;;;;8.88;2.38;;;;;;;0.34;100.00;100956.41;7388979;19;20158;-52
2022/04/02 00:30:27;;;;;;;9.67;3.90;;;;;;;0.42;100.00;100951.09;7396692;19;20127;-49
2022/04/02 00:33:00;;;;;;;6.35;2.50;;;;;;;0.40;100.00;100954.41;7392033;19;20909;-47
2022/04/02 00:35:29;;;;;;;4.47;2.20;;;;;;;0.47;100.00;100947.31;7396210;19;20134;-53
2022/04/02 00:37:59;;;;;;;9.80;3.45;;;;;;;0.44;100.00;100949.56;7388946;19;20162;-49
2022/04/02 00:40:30;;;;;;;4.50;2.30;;;;;;;0.46;100.00;100950.59;7395867;19;20142;-48
2022/04/02 00:43:00;;;;;;;5.85;2.55;;;;;;;0.36;100.00;100954.88;7391902;19;20133;-51
2022/04/02 00:45:29;;;;;;;4.88;2.33;;;;;;;0.35;100.00;100947.13;7395769;19;20496;-54
2022/04/02 00:48:01;;;;;;;6.47;2.60;;;;;;;0.38;100.00;100949.94;7388170;19;20517;-52
2022/04/02 00:50:31;;;;;;;6.50;2.50;;;;;;;0.37;100.00;100954.13;7395824;19;20137;-49
2022/04/02 00:53:01;;;;;;;5.90;2.20;;;;;;;0.37;100.00;100956.66;7389138;19;20142;-52
2022/04/02 00:55:30;;;;;;;7.43;3.72;;;;;;;0.40;100.00;100951.84;7396059;19;20137;-52
2022/04/02 00:58:00;;;;;;;8.48;3.08;;;;;;;0.43;100.00;100950.31;7388983;19;20163;-53
2022/04/02 01:00:30;;;;;;;10.02;3.83;;;;;;;0.38;100.00;100953.38;7396451;19;20123;-48
2022/04/02 01:03:02;;;;;;;149.23;60.63;;;;;;;1.27;100.00;100936.97;7390988;19;20130;-50
2022/04/02 01:05:31;;;;;;;13.02;5.10;;;;;;;2.01;100.00;100953.06;7400471;19;20127;-50
2022/04/02 01:08:06;;;;;;;11.57;5.17;;;;;;;1.73;100.00;100967.78;7388922;19;20610;-50
2022/04/02 01:10:38;;;;;;;11.43;5.10;;;;;;;1.07;100.00;100962.50;7395917;19;20420;-47
2022/04/02 01:13:09;;;;;;;8.27;4.10;;;;;;;1.00;100.00;100961.84;7388169;19;20419;-51
2022/04/02 01:15:40;;;;;;;9.50;4.60;;;;;;;0.96;100.00;100964.94;7395578;19;20393;-49
2022/04/02 01:18:12;;;;;;;10.73;5.83;;;;;;;1.02;100.00;100962.91;7389146;19;20396;-48
2022/04/02 01:20:42;;;;;;;15.93;6.00;;;;;;;0.99;100.00;100955.00;7395751;19;20394;-49
2022/04/02 01:23:14;;;;;;;7.75;3.35;;;;;;;0.84;100.00;100962.22;7390817;19;20414;-49
2022/04/02 01:25:44;;;;;;;8.40;3.60;;;;;;;0.88;100.00;100961.72;7395285;19;20194;-48
2022/04/02 01:28:14;;;;;;;7.50;2.80;;;;;;;0.73;100.00;100963.88;7388127;19;20409;-51
2022/04/02 01:30:43;;;;;;;11.33;5.03;;;;;;;0.90;100.00;100960.19;7395378;19;20911;-49
2022/04/02 01:33:13;;;;;;;16.88;5.05;;;;;;;0.88;100.00;100962.59;7389381;19;20383;-51
2022/04/02 01:35:43;;;;;;;29.33;11.73;;;;;;;0.95;100.00;100953.84;7396218;19;20137;-49
2022/04/02 01:38:15;;;;;;;22.88;9.88;;;;;;;1.14;100.00;100956.28;7384973;19;20411;-50
2022/04/02 01:40:45;;;;;;;11.90;5.00;;;;;;;1.14;100.00;100953.75;7394851;19;20126;-48
2022/04/02 01:43:14;;;;;;;14.53;6.80;;;;;;;1.14;100.00;100960.47;7387249;19;20199;-48
2022/04/02 01:45:44;;;;;;;11.18;5.75;;;;;;;1.21;100.00;100953.50;7394635;19;20946;-50
2022/04/02 01:48:15;;;;;;;9.30;4.10;;;;;;;1.30;100.00;100957.53;7387840;19;20194;-47
2022/04/02 01:50:50;;;;;;;8.52;4.60;;;;;;;1.14;100.00;100957.94;7395885;19;20374;-50
2022/04/02 01:53:23;;;;;;;7.40;2.63;;;;;;;1.06;100.00;100963.28;7380420;19;20192;-50
2022/04/02 01:55:54;;;;;;;7.40;4.00;;;;;;;1.23;100.00;100955.25;7394155;19;20395;-50
2022/04/02 01:58:23;;;;;;;8.33;3.97;;;;;;;1.30;100.00;100963.53;7388226;19;20198;-47
2022/04/02 02:00:53;;;;;;;6.00;3.17;;;;;;;1.14;100.00;100957.94;7393708;19;21017;-48
2022/04/02 02:03:22;;;;;;;9.57;3.80;;;;;;;1.21;100.00;100960.22;7389278;19;20380;-47
2022/04/02 02:05:53;;;;;;;8.90;3.30;;;;;;;1.17;100.00;100955.63;7394017;19;20131;-51
2022/04/02 02:08:26;;;;;;;5.97;2.70;;;;;;;1.02;100.00;100955.28;7385372;19;20740;-50
2022/04/02 02:10:55;;;;;;;6.53;2.77;;;;;;;1.05;100.00;100955.50;7394594;19;20153;-51
2022/04/02 02:13:25;;;;;;;20.95;7.93;;;;;;;0.99;100.00;100952.47;7385531;19;20404;-48
2022/04/02 02:15:55;;;;;;;9.70;4.40;;;;;;;1.00;100.00;100951.69;7393742;19;20123;-48
2022/04/02 02:18:27;;;;;;;10.60;4.25;;;;;;;0.84;100.00;100954.59;7387005;19;20439;-47
2022/04/02 02:20:57;;;;;;;8.23;3.72;;;;;;;0.82;100.00;100949.38;7396479;19;20126;-50
2022/04/02 02:23:29;;;;;;;9.13;3.55;;;;;;;0.86;100.00;100948.88;7386618;19;20191;-47
2022/04/02 02:25:58;;;;;;;6.78;3.20;;;;;;;0.65;100.00;100948.88;7393490;19;20123;-47
2022/04/02 02:28:28;;;;;;;14.18;5.97;;;;;;;0.69;100.00;100946.56;7387715;19;20205;-47
2022/04/02 02:30:58;;;;;;;9.02;3.28;;;;;;;0.55;100.00;100941.22;7394252;19;20210;-47
2022/04/02 02:36:10;;;;;;;7.78;3.67;;;;;;;0.49;100.00;100940.69;7392661;19;20164;-47
2022/04/02 02:38:42;;;;;;;8.13;3.70;;;;;;;0.74;100.00;100930.97;7384791;19;20194;-47
2022/04/02 02:41:12;;;;;;;9.63;2.90;;;;;;;0.62;100.00;100933.34;7393744;19;20127;-48
2022/04/02 02:43:41;;;;;;;5.75;3.05;;;;;;;0.69;100.00;100934.78;7382556;19;20193;-49
2022/04/02 02:46:14;;;;;;;5.68;3.05;;;;;;;0.60;100.00;100933.97;7393407;19;20194;-48
2022/04/02 02:48:43;;;;;;;12.30;4.00;;;;;;;0.54;100.00;100939.44;7386268;19;20193;-47
2022/04/02 02:51:13;;;;;;;10.15;4.05;;;;;;;0.55;100.00;100936.13;7393207;19;20474;-49
2022/04/02 02:53:46;;;;;;;6.68;3.40;;;;;;;0.59;100.00;100928.03;7381363;19;20197;-50
2022/04/02 02:56:15;;;;;;;6.38;2.95;;;;;;;0.48;100.00;100933.84;7393020;19;20127;-48
2022/04/02 02:58:45;;;;;;;8.20;4.00;;;;;;;0.50;100.00;100930.69;7386300;19;20201;-51
2022/04/02 03:01:14;;;;;;;7.97;3.08;;;;;;;0.40;100.00;100935.72;7392837;19;20582;-51
2022/04/02 03:03:44;;;;;;;6.60;3.10;;;;;;;0.37;100.00;100938.88;7387166;19;20197;-49
2022/04/02 03:06:13;;;;;;;5.10;2.63;;;;;;;0.30;100.00;100944.19;7392699;19;20367;-47
2022/04/02 03:08:45;;;;;;;6.18;3.20;;;;;;;0.28;100.00;100939.75;7383276;19;20213;-49
2022/04/02 03:11:15;;;;;;;7.10;3.40;;;;;;;0.33;100.00;100934.31;7393113;19;20127;-49
2022/04/02 03:13:44;;;;;;;6.50;3.40;;;;;;;0.39;100.00;100929.78;7383733;19;20200;-51
2022/04/02 03:16:14;;;;;;;9.00;3.13;;;;;;;0.12;100.00;100936.75;7392522;19;20123;-48
2022/04/02 03:18:43;;;;;;;4.82;2.55;;;;;;;0.20;100.00;100932.34;7382650;19;20190;-52
2022/04/02 03:21:13;;;;;;;5.95;3.03;;;;;;;0.11;100.00;100931.59;7395952;19;20559;-48
2022/04/02 03:23:42;;;;;;;8.45;3.00;;;;;;;0.11;100.00;100929.91;7394572;19;20541;-48
2022/04/02 03:26:15;;;;;;;9.00;3.22;;;;;;;0.20;100.00;100934.03;7399596;19;20202;-48
2022/04/02 03:28:46;;;;;;;12.25;3.35;;;;;;;0.17;100.00;100934.66;7390102;19;20190;-49
2022/04/02 03:31:15;;;;;;;5.50;3.10;;;;;;;0.13;100.00;100932.59;7399938;19;20123;-51
2022/04/02 03:33:45;;;;;;;8.70;3.67;;;;;;;0.08;100.00;100934.75;7392535;19;20207;-48
2022/04/02 03:36:14;;;;;;;7.93;4.13;;;;;;;0.13;100.00;100933.50;7401365;19;20134;-50
2022/04/02 03:38:44;;;;;;;7.93;3.30;;;;;;;0.06;100.00;100938.78;7390366;19;20208;-48
2022/04/02 03:41:16;;;;;;;6.50;3.15;;;;;;;0.02;100.00;100929.13;7399510;19;20134;-49
2022/04/02 03:43:46;;;;;;;7.45;3.05;;;;;;;0.05;100.00;100931.91;7394281;19;20186;-49
2022/04/02 03:48:57;;;;;;;6.50;3.30;;;;;;;-0.16;100.00;100936.91;7395052;19;20559;-48
2022/04/02 03:51:27;;;;;;;8.10;3.42;;;;;;;-0.07;100.00;100935.94;7398912;19;20130;-50
2022/04/02 03:53:58;;;;;;;8.50;3.70;;;;;;;-0.20;100.00;100942.47;7392741;19;20194;-48
2022/04/02 03:56:30;;;;;;;8.95;2.97;;;;;;;-0.25;100.00;100951.34;7398179;19;20127;-49
2022/04/02 03:58:59;;;;;;;5.75;2.83;;;;;;;-0.08;100.00;100942.66;7392487;19;20285;-48
2022/04/02 04:01:29;;;;;;;8.73;2.95;;;;;;;-0.07;100.00;100948.59;7398593;19;20582;-51
2022/04/02 04:03:58;;;;;;;8.73;3.00;;;;;;;-0.26;100.00;100947.00;7389990;19;20198;-52
2022/04/02 04:06:28;;;;;;;7.45;3.10;;;;;;;-0.13;100.00;100946.44;7398344;19;20150;-48
2022/04/02 04:08:58;;;;;;;6.55;3.50;;;;;;;-0.17;100.00;100952.88;7391235;19;20186;-48
2022/04/02 04:11:30;;;;;;;10.77;4.35;;;;;;;-0.17;100.00;100955.44;7398499;19;20131;-46
2022/04/02 04:14:00;;;;;;;10.18;2.92;;;;;;;-0.26;100.00;100953.72;7393274;19;20186;-48
2022/04/02 04:16:29;;;;;;;6.53;2.83;;;;;;;-0.30;100.00;100952.56;7397903;19;20123;-47
2022/04/02 04:18:59;;;;;;;18.85;8.15;;;;;;;-0.25;100.00;100955.50;7394006;19;20211;-48
2022/04/02 04:21:28;;;;;;;9.05;3.35;;;;;;;-0.12;100.00;100960.91;7398015;19;20230;-51
2022/04/02 04:23:58;;;;;;;9.90;4.00;;;;;;;-0.19;100.00;100959.47;7392379;19;20201;-47
2022/04/02 04:26:30;;;;;;;9.10;3.78;;;;;;;-0.27;100.00;100970.56;7397573;19;20127;-51
2022/04/02 04:28:59;;;;;;;10.40;3.70;;;;;;;-0.42;100.00;100976.06;7388983;19;20194;-47
2022/04/02 04:31:29;;;;;;;5.32;2.72;;;;;;;-0.45;100.00;100982.50;7396152;19;20126;-47
2022/04/02 04:33:58;;;;;;;6.45;3.25;;;;;;;-0.34;100.00;100983.47;7388825;19;20201;-48
2022/04/02 04:36:29;;;;;;;13.00;3.40;;;;;;;-0.19;100.00;100987.38;7396637;19;20127;-48
2022/04/02 04:38:58;;;;;;;16.42;3.50;;;;;;;-0.29;100.00;100989.84;7388672;19;20208;-48
2022/04/02 04:41:38;;;;;;;11.60;3.13;;;;;;;-0.45;100.00;100993.53;7397384;19;20130;-48
2022/04/02 04:44:08;;;;;;;6.00;3.17;;;;;;;-0.45;100.00;100995.19;7386599;19;20531;-48
2022/04/02 04:46:39;;;;;;;9.40;3.53;;;;;;;-0.36;100.00;100997.66;7396012;19;20194;-51
2022/04/02 04:49:09;;;;;;;6.80;3.00;;;;;;;-0.47;100.00;101010.25;7387125;19;20190;-49
2022/04/02 04:51:39;;;;;;;6.53;2.90;;;;;;;-0.46;100.00;101006.97;7396596;19;20578;-51
2022/04/02 04:54:09;;;;;;;7.15;3.20;;;;;;;-0.30;100.00;101013.44;7389724;19;20190;-48
2022/04/02 04:56:41;;;;;;;7.82;3.35;;;;;;;-0.44;100.00;101015.63;7395991;19;20127;-50
2022/04/02 04:59:12;;;;;;;6.47;2.70;;;;;;;-0.45;100.00;101023.09;7390483;19;20198;-50
2022/04/02 05:01:42;;;;;;;6.25;3.00;;;;;;;-0.45;100.00;101023.97;7396269;19;20487;-49
2022/04/02 05:04:12;;;;;;;12.07;3.65;;;;;;;-0.55;100.00;101024.78;7390563;19;20261;-49
2022/04/02 05:06:42;;;;;;;8.00;2.70;;;;;;;-0.61;100.00;101033.47;7399173;19;20131;-48
2022/04/02 05:09:12;;;;;;;7.05;2.70;;;;;;;-0.52;100.00;101041.03;7388297;19;20196;-49
2022/04/02 05:11:44;;;;;;;7.45;2.67;;;;;;;-0.44;100.00;101043.50;7396170;19;20141;-47
2022/04/02 05:14:14;;;;;;;6.95;2.70;;;;;;;-0.54;100.00;101051.03;7390206;19;20284;-51
2022/04/02 05:16:44;;;;;;;10.55;4.80;;;;;;;-0.43;100.00;101055.44;7395583;19;20126;-51
2022/04/02 05:19:13;;;;;;;6.63;2.75;;;;;;;-0.28;100.00;101062.63;7385929;19;20201;-49
2022/04/02 05:21:43;;;;;;;4.10;2.30;;;;;;;0.56;100.00;101062.34;7395866;19;20469;-49
2022/04/02 05:24:12;;;;;;;13.77;6.40;;;;;;;0.46;100.00;101069.94;7389320;19;20201;-49
2022/04/02 05:26:47;;;;;;;18.08;8.10;;;;;;;1.04;100.00;101078.28;7395585;19;20127;-49
2022/04/02 05:29:16;;;;;;;60.45;27.17;;;;;;;1.39;100.00;101080.34;7387444;19;20197;-49
2022/04/02 05:31:47;;;;;;;55.58;26.35;;;;;;;0.98;100.00;101098.97;7395246;19;20123;-48
2022/04/02 05:34:17;;;;;;;4.32;2.72;;;;;;;0.67;100.00;101109.91;7389544;19;20254;-48
2022/04/02 05:36:46;;;;;;;19.85;8.20;;;;;;;0.91;100.00;101119.50;7395184;19;20586;-51
2022/04/02 05:39:16;;;;;;;11.90;5.72;;;;;;;0.72;100.00;101114.50;7389011;19;20216;-50
2022/04/02 05:41:54;;;;;;;9.80;4.85;;;;;;;0.77;100.00;101115.81;7395437;19;20119;-49
2022/04/02 05:44:24;;;;;;;10.20;4.73;;;;;;;0.90;100.00;101123.72;7390173;19;20193;-48
2022/04/02 05:46:53;;;;;;;11.65;5.15;;;;;;;0.93;100.00;101123.97;7394959;19;20370;-48
2022/04/02 05:49:43;;;;;;;7.95;3.55;;;;;;;0.86;100.00;101136.91;7386751;19;20573;-49
2022/04/02 05:52:12;;;;;;;8.93;4.73;;;;;;;0.92;100.00;101137.44;7396153;19;20601;-52
2022/04/02 05:54:42;;;;;;;8.45;3.70;;;;;;;1.32;100.00;101137.44;7385601;19;20447;-49
2022/04/02 05:57:15;;;;;;;7.73;2.90;;;;;;;1.47;100.00;101144.56;7394721;19;20594;-52
2022/04/02 05:59:44;;;;;;;5.17;2.57;;;;;;;1.23;100.00;101151.03;7389112;19;20410;-48
2022/04/02 06:02:14;;;;;;;4.40;2.50;;;;;;;0.94;100.00;101155.38;7394267;19;20718;-53
2022/04/02 06:04:44;;;;;;;5.00;2.70;;;;;;;0.77;100.00;101164.06;7388292;19;20754;-50
2022/04/02 06:07:13;;;;;;;11.63;3.60;;;;;;;0.18;100.00;101161.41;7394333;19;20396;-48
2022/04/02 06:09:43;;;;;;;6.25;3.13;;;;;;;-0.03;100.00;101151.09;7381115;19;20540;-48
2022/04/02 06:12:15;;;;;;;6.15;2.78;;;;;;;-0.01;100.00;101157.19;7394256;19;20123;-48
2022/04/02 06:14:45;;;;;;;8.40;2.60;;;;;;;0.02;100.00;101165.09;7387236;19;20598;-47
2022/04/02 06:17:14;;;;;;;6.22;3.03;;;;;;;-0.23;100.00;101146.75;7397077;19;20145;-50
2022/04/02 06:19:44;;;;;;;7.70;2.92;;;;;;;-0.16;100.00;101156.69;7383024;19;20213;-47
2022/04/02 06:22:14;;;;;;;6.78;3.30;;;;;;;-0.12;100.00;101160.44;7393994;19;20134;-49
2022/04/02 06:24:43;;;;;;;6.40;2.80;;;;;;;-0.04;100.00;101155.28;7388949;19;20201;-48
2022/04/02 06:27:21;;;;;;;7.93;3.35;;;;;;;-0.16;100.00;101162.69;7393552;19;20122;-48
2022/04/02 06:29:51;;;;;;;12.80;2.60;;;;;;;-0.15;100.00;101161.91;7387687;19;20201;-49
2022/04/02 06:32:22;;;;;;;7.50;3.05;;;;;;;-0.18;100.00;101166.72;7393927;19;20147;-48
2022/04/02 06:34:52;;;;;;;7.13;2.25;;;;;;;-0.16;100.00;101175.34;7387174;19;20192;-49
2022/04/02 06:37:22;;;;;;;5.43;2.53;;;;;;;-0.12;100.00;101180.72;7393303;19;20182;-47
2022/04/02 06:39:51;;;;;;;8.25;3.55;;;;;;;-0.10;100.00;101179.22;7386340;19;20204;-50
2022/04/02 06:42:23;;;;;;;6.05;2.00;;;;;;;-0.07;100.00;101174.41;7393165;19;20134;-48
2022/04/02 06:44:53;;;;;;;39.08;15.23;;;;;;;0.10;100.00;101179.38;7388152;19;20197;-51
2022/04/02 06:47:27;;;;;;;37.83;15.70;;;;;;;0.53;100.00;101176.38;7392824;19;20123;-48
2022/04/02 06:49:57;;;;;;;48.97;18.02;;;;;;;0.47;100.00;101184.31;7386609;19;20201;-48
2022/04/02 06:52:27;;;;;;;16.70;7.07;;;;;;;0.49;100.00;101189.53;7392906;19;20123;-51
2022/04/02 06:54:56;;;;;;;10.32;4.40;;;;;;;0.55;100.00;101201.91;7392657;19;20197;-51
2022/04/02 06:57:29;;;;;;;16.48;6.90;;;;;;;0.65;100.00;101202.88;7407081;19;20144;-51
2022/04/02 06:59:59;;;;;;;6.85;3.05;;;;;;;0.75;100.00;101213.81;7400772;19;20657;-48
2022/04/02 07:02:28;;;;;;;5.18;2.45;;;;;;;0.61;100.00;101222.78;7410115;19;20135;-49
2022/04/02 07:04:58;;;;;;;7.97;3.42;;;;;;;0.69;100.00;101225.97;7397504;19;20774;-52
2022/04/02 07:07:28;;;;;;;8.13;2.60;;;;;;;0.82;100.00;101228.84;7407830;19;20131;-52
2022/04/02 07:10:00;;;;;;;4.78;2.35;;;;;;;0.58;100.00;101235.19;7400432;19;20522;-48
2022/04/02 07:12:33;;;;;;;4.82;2.40;;;;;;;0.69;100.00;101239.59;7406333;19;20138;-50
2022/04/02 07:15:02;;;;;;;5.63;2.17;;;;;;;0.65;100.00;101243.50;7396088;19;20194;-50
2022/04/02 07:17:32;;;;;;;5.22;2.33;;;;;;;0.78;100.00;101244.59;7403583;19;20149;-52
2022/04/02 07:20:03;;;;;;;4.60;1.95;;;;;;;0.97;100.00;101256.41;7403541;19;20186;-47
2022/04/02 07:22:32;;;;;;;4.38;2.20;;;;;;;1.05;100.00;101248.69;7408739;19;20135;-52
2022/04/02 07:25:04;;;;;;;6.55;2.65;;;;;;;1.03;100.00;101254.41;7401961;19;20193;-49
2022/04/02 07:27:38;;;;;;;5.13;2.20;;;;;;;0.98;100.00;101254.00;7410433;19;20135;-49
2022/04/02 07:30:11;;;;;;;5.60;2.10;;;;;;;1.07;100.00;101264.06;7393501;19;20485;-52
2022/04/02 07:32:40;;;;;;;10.30;4.27;;;;;;;0.94;100.00;101273.13;7405568;19;20396;-50
2022/04/02 07:35:11;;;;;;;5.90;2.57;;;;;;;1.15;100.00;101283.44;7400025;19;20446;-49
2022/04/02 07:37:50;;;;;;;4.40;2.10;;;;;;;1.26;100.00;101271.66;7405413;19;20396;-50
2022/04/02 07:40:21;;;;;;;9.50;3.05;;;;;;;1.41;100.00;101277.19;7399987;19;20189;-48
2022/04/02 07:43:04;;;;;;;5.13;1.87;;;;;;;1.22;100.00;101274.69;7399155;19;20139;-48
2022/04/02 07:45:38;;;;;;;10.90;2.90;;;;;;;1.44;100.00;101291.84;7405268;19;20391;-51
2022/04/02 07:48:10;;;;;;;7.17;2.10;;;;;;;1.80;100.00;101282.16;7395603;19;20457;-51
2022/04/02 07:50:44;;;;;;;9.90;3.43;;;;;;;1.75;100.00;101287.72;7403630;19;20708;-48
2022/04/02 07:53:17;;;;;;;8.93;2.50;;;;;;;2.06;100.00;101286.03;7403844;19;20719;-51
2022/04/02 07:55:47;;;;;;;9.17;2.67;;;;;;;2.21;100.00;101286.44;7405310;19;20399;-50
2022/04/02 07:58:22;;;;;;;8.57;2.57;;;;;;;2.20;100.00;101295.72;7400768;19;20398;-51
2022/04/02 08:00:57;;;;;;;10.87;1.90;;;;;;;2.19;100.00;101299.03;7407384;19;20381;-48
2022/04/02 08:03:26;;;;;;;8.37;2.07;;;;;;;2.24;100.00;101299.41;7396791;19;20458;-51
2022/04/02 08:05:57;;;;;;;6.90;2.30;;;;;;;2.31;100.00;101300.81;7403226;19;20386;-48
2022/04/02 08:08:27;;;;;;;4.60;1.73;;;;;;;2.33;100.00;101306.94;7390879;19;20764;-48
2022/04/02 08:10:57;;;;;;;9.77;3.57;;;;;;;2.24;100.00;101318.13;7397265;19;20394;-49
2022/04/02 08:13:31;;;;;;;5.23;1.30;;;;;;;2.20;98.45;101311.00;7391745;19;20406;-48
2022/04/02 08:16:01;;;;;;;8.07;2.37;;;;;;;2.02;97.35;101313.75;7398120;19;20476;-51
2022/04/02 08:18:31;;;;;;;4.27;1.50;;;;;;;2.09;95.67;101315.19;7390503;19;20423;-50
2022/04/02 08:21:02;;;;;;;6.20;1.90;;;;;;;2.35;97.24;101315.63;7396318;19;20383;-48
2022/04/02 08:23:32;;;;;;;3.37;1.30;;;;;;;2.72;97.54;101317.78;7390159;19;20913;-48
2022/04/02 08:26:11;;;;;;;11.33;3.90;;;;;;;3.31;96.62;101323.41;7399018;19;20381;-49
2022/04/02 08:28:52;;;;;;;14.43;5.33;;;;;;;2.96;92.19;101322.34;7388828;19;20389;-49
2022/04/02 08:31:29;;;;;;;4.30;1.10;;;;;;;3.20;94.06;101322.56;7396426;19;20378;-50
2022/04/02 08:34:06;;;;;;;5.10;1.93;;;;;;;3.04;94.78;101330.63;7391920;19;20469;-48
2022/04/02 08:36:42;;;;;;;6.20;2.13;;;;;;;2.84;94.28;101323.88;7396635;19;20362;-49
2022/04/02 08:39:16;;;;;;;13.30;4.47;;;;;;;2.95;96.64;101325.66;7386084;19;20406;-52
2022/04/02 08:42:17;;;;;;;8.00;1.63;;;;;;;3.30;98.29;101326.72;7397063;19;20450;-50
2022/04/02 08:45:07;;;;;;;6.77;1.90;;;;;;;3.86;97.84;101320.00;7390908;19;20417;-51
2022/04/02 08:48:10;;;;;;;4.70;1.47;;;;;;;3.61;96.47;101328.28;7396459;19;20966;-50
2022/04/02 08:50:44;;;;;;;5.23;1.57;;;;;;;3.77;93.12;101322.72;7395743;19;20407;-50
2022/04/02 08:53:24;;;;;;;7.17;2.93;;;;;;;3.67;90.26;101323.66;7392159;19;20745;-49
2022/04/02 08:56:00;;;;;;;5.90;1.80;;;;;;;4.03;90.73;101322.19;7396728;19;20383;-49
2022/04/02 08:58:49;;;;;;;7.90;2.33;;;;;;;3.72;86.44;101317.25;7390888;19;20791;-51
2022/04/02 09:01:27;;;;;;;6.83;2.20;;;;;;;3.38;84.35;101320.56;7396603;19;20379;-50
2022/04/02 09:04:39;;;;;;;8.17;4.80;;;;;;;3.54;82.40;101316.69;7388575;19;21130;-48
2022/04/02 09:07:41;;;;;;;5.93;2.93;;;;;;;3.45;76.93;101326.16;7395884;19;20380;-54
2022/04/02 09:10:28;;;;;;;7.00;3.10;;;;;;;3.47;78.84;101324.63;7391502;19;20423;-48
2022/04/02 09:13:08;;;;;;;40.10;20.90;;;;;;;3.67;79.99;101328.75;7387987;19;20944;-50
2022/04/02 09:15:51;;;;;;;9.80;2.20;;;;;;;3.74;79.98;101332.69;7395817;19;20395;-51
2022/04/02 09:18:38;;;;;;;3.67;1.87;;;;;;;3.83;79.96;101325.75;7381535;19;20473;-49
2022/04/02 09:21:31;;;;;;;5.03;2.07;;;;;;;3.77;75.48;101333.81;7396480;19;20378;-50
2022/04/02 09:24:07;;;;;;;9.10;3.50;;;;;;;3.58;72.45;101325.50;7387618;19;20401;-50
2022/04/02 09:27:06;;;;;;;5.17;1.83;;;;;;;3.74;73.34;101335.25;7393174;19;20391;-48
2022/04/02 09:29:40;;;;;;;5.17;2.37;;;;;;;3.54;73.68;101341.31;7381374;19;20418;-52
2022/04/02 09:32:29;;;;;;;5.57;2.00;;;;;;;3.59;68.89;101335.81;7396485;19;20391;-53
2022/04/02 09:35:43;;;;;;;5.13;1.87;;;;;;;3.56;69.46;101334.66;7383017;19;20477;-49
2022/04/02 09:38:35;;;;;;;7.20;3.60;;;;;;;3.46;72.56;101333.03;7385415;19;20397;-50
2022/04/02 09:41:16;;;;;;;3.83;1.47;;;;;;;3.49;68.35;101339.28;7393865;19;20885;-52
2022/04/02 09:43:52;;;;;;;3.70;1.47;;;;;;;3.61;67.99;101334.28;7387516;19;20405;-49
2022/04/02 09:46:36;;;;;;;7.27;3.10;;;;;;;3.74;67.22;101341.22;7393501;19;20387;-48
2022/04/02 09:49:11;;;;;;;6.10;1.90;;;;;;;3.91;66.68;101334.88;7386812;19;20411;-52
2022/04/02 09:51:45;;;;;;;4.47;1.93;;;;;;;3.99;66.73;101332.06;7392229;19;20889;-48
2022/04/02 09:54:17;;;;;;;5.10;2.03;;;;;;;3.75;66.62;101343.00;7386617;19;20398;-48
2022/04/02 09:56:53;;;;;;;4.47;1.70;;;;;;;3.83;67.50;101346.16;7395437;19;20374;-51
2022/04/02 09:59:25;;;;;;;4.37;1.90;;;;;;;3.73;67.16;101346.19;7384391;19;20450;-47
2022/04/02 10:02:03;;;;;;;17.33;7.87;;;;;;;3.87;67.34;101339.63;7398921;19;20458;-50
2022/04/02 10:04:42;;;;;;;30.10;12.13;;;;;;;3.98;67.02;101336.25;7384340;19;20496;-47
2022/04/02 10:07:35;;;;;;;5.47;2.70;;;;;;;4.29;66.64;101337.72;7397950;19;20736;-47
2022/04/02 10:10:05;;;;;;;9.20;4.00;;;;;;;4.37;68.84;101341.78;7386607;19;20402;-49
2022/04/02 10:12:37;;;;;;;13.20;3.67;;;;;;;4.42;67.22;101335.34;7395347;19;20382;-49
2022/04/02 10:15:08;;;;;;;14.10;5.27;;;;;;;4.42;66.07;101330.22;7391686;19;20454;-51
2022/04/02 10:17:41;;;;;;;24.63;10.40;;;;;;;4.72;68.08;101335.88;7397221;19;20391;-49
2022/04/02 10:20:12;;;;;;;13.90;4.13;;;;;;;4.15;62.37;101335.00;7390223;19;20399;-50
2022/04/02 10:22:45;;;;;;;12.60;4.90;;;;;;;4.27;61.57;101318.84;7393454;19;20401;-49
2022/04/02 10:25:17;;;;;;;4.07;1.60;;;;;;;3.98;62.84;101326.06;7393864;19;20435;-48
2022/04/02 10:27:47;;;;;;;12.60;5.20;;;;;;;3.81;62.46;101332.41;7390151;19;20392;-50
2022/04/02 10:30:19;;;;;;;6.03;1.93;;;;;;;4.08;64.07;101326.75;7395803;19;20392;-49
2022/04/02 10:32:57;;;;;;;9.23;3.90;;;;;;;4.20;64.64;101317.47;7390066;19;20410;-49
2022/04/02 10:35:29;;;;;;;5.13;2.67;;;;;;;4.46;65.29;101316.00;7395189;19;20912;-47
2022/04/02 10:38:12;;;;;;;5.63;2.33;;;;;;;4.64;66.71;101313.97;7386085;19;20406;-49
2022/04/02 10:40:48;;;;;;;6.40;3.13;;;;;;;4.92;68.92;101312.56;7396651;19;20377;-48
2022/04/02 10:43:28;;;;;;;5.73;2.73;;;;;;;5.04;69.63;101322.78;7391936;19;20402;-51
2022/04/02 10:45:59;;;;;;;3.80;1.60;;;;;;;5.17;65.22;101314.38;7396772;19;20907;-48
2022/04/02 10:48:31;;;;;;;5.30;2.00;;;;;;;5.32;67.09;101315.47;7387555;19;20787;-54
2022/04/02 10:51:00;;;;;;;3.73;1.33;;;;;;;4.70;63.72;101311.88;7397516;19;20486;-51
2022/04/02 10:53:33;;;;;;;4.03;1.80;;;;;;;4.07;66.30;101315.66;7389423;19;20438;-53
2022/04/02 10:56:06;;;;;;;5.37;1.93;;;;;;;3.89;66.97;101318.56;7397061;19;20467;-50
2022/04/02 10:58:39;;;;;;;4.13;1.90;;;;;;;3.84;68.33;101322.41;7388510;19;20430;-48
2022/04/02 11:01:09;;;;;;;5.00;2.17;;;;;;;3.77;70.09;101315.06;7396884;19;20359;-47
2022/04/02 11:03:42;;;;;;;3.57;1.57;;;;;;;3.58;68.85;101316.16;7389572;19;20797;-51
2022/04/02 11:06:12;;;;;;;7.03;2.07;;;;;;;3.37;67.35;101321.34;7395864;19;20380;-52
2022/04/02 11:08:44;;;;;;;4.90;1.90;;;;;;;3.61;70.47;101328.28;7387097;19;20435;-48
2022/04/02 11:11:19;;;;;;;4.17;1.93;;;;;;;3.35;69.66;101327.97;7396639;19;20374;-51
2022/04/02 11:13:54;;;;;;;4.70;1.80;;;;;;;3.67;70.00;101327.84;7388571;19;20439;-48
2022/04/02 11:16:24;;;;;;;5.73;1.90;;;;;;;3.94;68.44;101318.03;7395897;19;20740;-47
2022/04/02 11:21:47;;;;;;;3.23;1.53;;;;;;;4.23;68.31;101316.81;7395933;19;20418;-52
2022/04/02 11:24:22;;;;;;;3.53;1.87;;;;;;;4.25;63.95;101305.09;7384317;19;20490;-48
2022/04/02 11:26:53;;;;;;;3.97;2.10;;;;;;;4.29;65.55;101320.75;7391208;19;21196;-52
2022/04/02 11:29:23;;;;;;;5.97;2.00;;;;;;;4.25;64.02;101315.31;7384406;19;20397;-51
2022/04/02 11:31:53;;;;;;;3.97;1.90;;;;;;;4.40;64.00;101315.53;7391616;19;20942;-52
2022/04/02 11:34:25;;;;;;;3.90;1.60;;;;;;;4.72;64.01;101314.53;7384658;19;20430;-51
2022/04/02 11:37:03;;;;;;;4.47;1.83;;;;;;;5.04;67.87;101307.44;7393548;19;20908;-50
2022/04/02 11:39:37;;;;;;;3.70;2.10;;;;;;;4.89;68.87;101312.31;7385266;19;20783;-49
2022/04/02 11:42:09;;;;;;;5.60;2.67;;;;;;;4.50;67.29;101312.06;7394706;19;20388;-53
2022/04/02 11:44:40;;;;;;;4.07;1.77;;;;;;;4.70;68.52;101316.97;7391380;19;20438;-49
2022/04/02 11:47:10;;;;;;;7.80;2.90;;;;;;;4.41;68.58;101313.13;7398922;19;20407;-48
2022/04/02 11:49:43;;;;;;;7.93;3.87;;;;;;;4.12;68.99;101318.56;7391362;19;20408;-49
2022/04/02 11:52:13;;;;;;;9.53;2.40;;;;;;;3.83;69.86;101320.63;7398452;19;20375;-49
2022/04/02 11:55:01;;;;;;;27.53;12.73;;;;;;;4.37;74.41;101326.44;7393831;19;20522;-51
2022/04/02 11:57:30;;;;;;;3.10;1.53;;;;;;;4.70;70.58;101316.06;7397861;19;20391;-51
2022/04/02 12:00:01;;;;;;;4.37;1.77;;;;;;;4.58;71.08;101313.50;7393451;19;20624;-53